KMTNKMIV

Guest
Details From KMTN - Martin State
To KMIV - MILLVILLE MUNI
Flight Number -
Tags generated
Created
Modified
Stats Distance 62 nm / 116 km
Max Altitude 6,100 ft / 1,859 m
Waypoints 3
Social Downloads 1
Likes 0
Share VATSIM

Download

Looking for another format? Having issues loading an existing format? Contact us
Advertisement - Login to hide

Notes

Basic altitude profile: - Ascent Rate: 2500ft/min - Ascent Speed: 250kts - Cruise Altitude: 35000ft - Cruise Speed: 420kts - Descent Rate: 1500ft/min - Descent Speed: 250kts Options: - Use NATs: yes - Use PACOTS: yes - Use low airways: yes - Use high airways: no

Route

KMTN KERNO KMIV

ID Type Via Altitude Latitude Longitude Leg Dist Tot Dist Heading (true) Name
O KMTN APT - 0 ft / 0 m 39.32566˚ -76.41377˚ - 0 nm - Martin State
KERNO FIX - 6,100 ft / 1,859 m 39.31007˚ -76.04303˚ 17 nm 17 nm 93° / 93° -
O KMIV APT - 0 ft / 0 m 39.36787˚ -75.07226˚ 45 nm 62 nm 85° / 86° MILLVILLE MUNI

Altitude Profile

Advertisement - Login to hide

KMTN

Details ICAO KMTN
Name Martin State
Region United States
Timezone America/New_York (UTC-5.0)
Stats Elevation 22 ft / 7 m (AMSL)
Location 39.325658° -76.413768°
Runways 1
Magnetic Variation 11.285° W

METAR

KMTN 181950Z 13004KT 7SM BKN100 10/04 A3001

Decode

TAF

KMTN 181734Z 1818/1918 23004KT 5SM HZ BKN060 FM182000 22004KT P6SM BKN060 FM191400 24007KT P6SM SCT035 FM191600 24010KT P6SM SCT250

Decode

Departure Runways

ID Width Length Bearing (true) Bearing (mag) Surface Threshold Offset Overrun Length
15 180 ft / 55 m 6,995 ft / 2,132 m 135.28° 146.57° Concrete 0 ft / 0 m 0 ft / 0 m
33 180 ft / 55 m 6,995 ft / 2,132 m 315.29° 326.58° Concrete 0 ft / 0 m 0 ft / 0 m

KMIV

Details ICAO KMIV (MIV)
Name MILLVILLE MUNI
Region United States
Timezone America/New_York (UTC-5.0)
Stats Elevation 85 ft / 26 m (AMSL)
Location 39.367870° -75.072260°
Runways 2
Magnetic Variation 12.037° W

METAR

KMIV 181954Z AUTO 29007KT 10SM OVC050 10/02 A3000 RMK AO2 SLP158 T01000022

Decode

TAF

KMIV 182001Z 1820/1918 27006KT P6SM BKN050 FM190800 25006KT P6SM SCT050 FM191700 25012G22KT P6SM SCT250

Decode

Destination Runways

ID Width Length Bearing (true) Bearing (mag) Surface Threshold Offset Overrun Length
10 150 ft / 46 m 5,988 ft / 1,825 m 90.02° 102.06° Asphalt 0 ft / 0 m 0 ft / 0 m
14 150 ft / 46 m 5,056 ft / 1,541 m 135.14° 147.18° Concrete 0 ft / 0 m 0 ft / 0 m
28 150 ft / 46 m 5,988 ft / 1,825 m 270.03° 282.07° Asphalt 0 ft / 0 m 0 ft / 0 m
32 150 ft / 46 m 5,056 ft / 1,541 m 315.15° 327.19° Concrete 0 ft / 0 m 0 ft / 0 m

Approach Navaids

Runway Type Ident Frequency Range Bearing (true) Bearing (mag) Slope Elevation
10 Localiser IMIV 110.90 MHz 18 nm / 33 km 90.03° 102.07° - 85 ft / 26 m (AMSL)
10 Glidescope IMIV 110.90 MHz 10 nm / 19 km 90.03° 102.07° 3.00° 61 ft / 19 m (AMSL)